Tennessee, Illinois
Current Conditions -  °F | °C
As of 6:55 PM on Monday 26 Jan 2015 (Local Time) from KMQB Reporting Station
Haze Haze  
Wind Chill: 32°   Ceiling: 4100
Heat Index: 32°   Visibility: 5mi
Dew Point: 31°   Wind: 0mph
Humidity: 97%   Direction: NA
Pressure: 29.9"   Gusts: NA
Location:  40.41°N, 90.84°W
Report Text: KMQB 270055Z AUTO 00000KT 5SM BR SCT029 OVC041 00/00 A2990 RMK AO2 T00001004
Loading
Personal Weather Stations






























Interactive Weather Map New forecast layout! Learn more

10-Day Weather Forecast

Advertisements
Track Severe Weather on mobile